THY7AW LTFM-LICJ
Flight info
| Callsign | THY7AW |
|---|---|
| Flight time | 2h 9m |
| Altitude | 34000 |
| Route | BARPE1G/17R BARPE UM603 SUTIS DCT LATAN/N0452F350 DCT VAKOR/N0378F180 Q152 ROSAS |
| Aircraft | A320/M-SDE3FGHIRWY/LB1 |
Departure
| Time | 2026-02-19 12:42 |
|---|---|
| Airport | İstanbul Airport (LTFM) |
Arrival
| Time | 2026-02-19 14:51 |
|---|---|
| Airport | Falcone–Borsellino Airport (LICJ) |
| Time | Latitude | Longitude | Altitude | Speed | Heading |
|---|---|---|---|---|---|
| 2026-02-19 11:54 | 41.26558 | 28.73787 | 334 ft | 0 kts | 269° |
| 2026-02-19 12:26 | 41.26558 | 28.73796 | 334 ft | 2 kts | 269° |
| 2026-02-19 12:26 | 41.26558 | 28.73821 | 333 ft | 3 kts | 269° |
| 2026-02-19 12:26 | 41.26561 | 28.73847 | 331 ft | 3 kts | 245° |
| 2026-02-19 12:26 | 41.26572 | 28.73867 | 330 ft | 3 kts | 211° |
| 2026-02-19 12:27 | 41.26590 | 28.73877 | 331 ft | 3 kts | 187° |
| 2026-02-19 12:27 | 41.26603 | 28.73879 | 332 ft | 1 kts | 179° |
| 2026-02-19 12:27 | 41.26618 | 28.73878 | 329 ft | 1 kts | 179° |
| 2026-02-19 12:27 | 41.26620 | 28.73878 | 330 ft | 0 kts | 179° |
| 2026-02-19 12:30 | 41.26615 | 28.73878 | 332 ft | 2 kts | 179° |
| 2026-02-19 12:30 | 41.26591 | 28.73879 | 331 ft | 5 kts | 179° |
| 2026-02-19 12:30 | 41.26564 | 28.73909 | 332 ft | 7 kts | 107° |
| 2026-02-19 12:30 | 41.26562 | 28.73978 | 333 ft | 8 kts | 90° |
| 2026-02-19 12:31 | 41.26606 | 28.74023 | 334 ft | 10 kts | 1° |
| 2026-02-19 12:31 | 41.26681 | 28.74022 | 330 ft | 12 kts | 359° |
| 2026-02-19 12:31 | 41.26769 | 28.74019 | 330 ft | 14 kts | 359° |
| 2026-02-19 12:31 | 41.26865 | 28.73998 | 331 ft | 15 kts | 315° |
| 2026-02-19 12:32 | 41.26876 | 28.73857 | 334 ft | 17 kts | 269° |
| 2026-02-19 12:32 | 41.26871 | 28.73516 | 334 ft | 20 kts | 269° |
| 2026-02-19 12:32 | 41.26869 | 28.73325 | 334 ft | 22 kts | 269° |
| 2026-02-19 12:33 | 41.26866 | 28.73130 | 334 ft | 19 kts | 269° |
| 2026-02-19 12:33 | 41.26865 | 28.73037 | 334 ft | 12 kts | 267° |
| 2026-02-19 12:33 | 41.26799 | 28.72991 | 330 ft | 13 kts | 180° |
| 2026-02-19 12:33 | 41.26719 | 28.72951 | 332 ft | 11 kts | 251° |
| 2026-02-19 12:34 | 41.26718 | 28.72938 | 334 ft | 0 kts | 264° |
| 2026-02-19 12:34 | 41.26718 | 28.72937 | 334 ft | 1 kts | 264° |
| 2026-02-19 12:35 | 41.26717 | 28.72915 | 333 ft | 4 kts | 267° |
| 2026-02-19 12:35 | 41.26716 | 28.72867 | 334 ft | 7 kts | 269° |
| 2026-02-19 12:35 | 41.26715 | 28.72790 | 334 ft | 10 kts | 269° |
| 2026-02-19 12:35 | 41.26714 | 28.72685 | 330 ft | 13 kts | 269° |
| 2026-02-19 12:36 | 41.26712 | 28.72556 | 332 ft | 15 kts | 269° |
| 2026-02-19 12:36 | 41.26765 | 28.72287 | 332 ft | 18 kts | 357° |
| 2026-02-19 12:36 | 41.26900 | 28.72283 | 333 ft | 21 kts | 359° |
| 2026-02-19 12:37 | 41.27052 | 28.72280 | 333 ft | 23 kts | 359° |
| 2026-02-19 12:37 | 41.27223 | 28.72276 | 334 ft | 26 kts | 359° |
| 2026-02-19 12:37 | 41.27406 | 28.72271 | 330 ft | 26 kts | 359° |
| 2026-02-19 12:37 | 41.27579 | 28.72267 | 330 ft | 26 kts | 359° |
| 2026-02-19 12:38 | 41.27770 | 28.72263 | 329 ft | 29 kts | 359° |
| 2026-02-19 12:38 | 41.27965 | 28.72258 | 330 ft | 29 kts | 359° |
| 2026-02-19 12:38 | 41.28173 | 28.72254 | 333 ft | 31 kts | 359° |
| 2026-02-19 12:38 | 41.28364 | 28.72249 | 332 ft | 25 kts | 359° |
| 2026-02-19 12:39 | 41.28548 | 28.72245 | 333 ft | 27 kts | 359° |
| 2026-02-19 12:39 | 41.28745 | 28.72240 | 333 ft | 29 kts | 359° |
| 2026-02-19 12:39 | 41.28956 | 28.72235 | 332 ft | 30 kts | 359° |
| 2026-02-19 12:39 | 41.29129 | 28.72231 | 334 ft | 25 kts | 359° |
| 2026-02-19 12:40 | 41.29311 | 28.72227 | 331 ft | 27 kts | 359° |
| 2026-02-19 12:40 | 41.29485 | 28.72339 | 334 ft | 15 kts | 88° |
| 2026-02-19 12:40 | 41.29443 | 28.72450 | 333 ft | 16 kts | 173° |
| 2026-02-19 12:41 | 41.29292 | 28.72453 | 333 ft | 42 kts | 179° |
| 2026-02-19 12:41 | 41.28781 | 28.72465 | 333 ft | 102 kts | 179° |
| 2026-02-19 12:41 | 41.27908 | 28.72478 | 337 ft | 146 kts | 180° |
| 2026-02-19 12:41 | 41.26856 | 28.72490 | 774 ft | 153 kts | 179° |
| 2026-02-19 12:42 | 41.25788 | 28.72531 | 1403 ft | 157 kts | 179° |
| 2026-02-19 12:42 | 41.24690 | 28.72587 | 2087 ft | 159 kts | 179° |
| 2026-02-19 12:42 | 41.23568 | 28.72647 | 2700 ft | 166 kts | 181° |
| 2026-02-19 12:42 | 41.22370 | 28.72710 | 3179 ft | 178 kts | 182° |
| 2026-02-19 12:43 | 41.21095 | 28.72771 | 3659 ft | 189 kts | 182° |
| 2026-02-19 12:43 | 41.19728 | 28.72838 | 4052 ft | 207 kts | 182° |
| 2026-02-19 12:43 | 41.18233 | 28.72651 | 4387 ft | 228 kts | 204° |
| 2026-02-19 12:43 | 41.16913 | 28.71407 | 4945 ft | 240 kts | 227° |
| 2026-02-19 12:44 | 41.15695 | 28.69845 | 5771 ft | 248 kts | 225° |
| 2026-02-19 12:44 | 41.13046 | 28.66653 | 7285 ft | 264 kts | 230° |
| 2026-02-19 12:44 | 41.12050 | 28.64632 | 8120 ft | 262 kts | 248° |
| 2026-02-19 12:45 | 41.11533 | 28.62327 | 9072 ft | 258 kts | 261° |
| 2026-02-19 12:45 | 41.11187 | 28.60004 | 10070 ft | 257 kts | 259° |
| 2026-02-19 12:45 | 41.10793 | 28.57660 | 10527 ft | 274 kts | 259° |
| 2026-02-19 12:45 | 41.10338 | 28.55088 | 10751 ft | 297 kts | 258° |
| 2026-02-19 12:46 | 41.09840 | 28.52319 | 10993 ft | 316 kts | 258° |
| 2026-02-19 12:46 | 41.09322 | 28.49440 | 11583 ft | 323 kts | 258° |
| 2026-02-19 12:46 | 41.08809 | 28.46565 | 12264 ft | 326 kts | 258° |
| 2026-02-19 12:46 | 41.08288 | 28.43622 | 12955 ft | 328 kts | 259° |
| 2026-02-19 12:47 | 41.07765 | 28.40651 | 13663 ft | 331 kts | 259° |
| 2026-02-19 12:47 | 41.07239 | 28.37659 | 14316 ft | 334 kts | 259° |
| 2026-02-19 12:47 | 41.06717 | 28.34678 | 14934 ft | 336 kts | 259° |
| 2026-02-19 12:47 | 41.06186 | 28.31647 | 15542 ft | 338 kts | 259° |
| 2026-02-19 12:48 | 41.05652 | 28.28600 | 16136 ft | 341 kts | 259° |
| 2026-02-19 12:48 | 41.04567 | 28.22439 | 17313 ft | 346 kts | 259° |
| 2026-02-19 12:48 | 41.04016 | 28.19323 | 17915 ft | 348 kts | 259° |
| 2026-02-19 12:49 | 41.03462 | 28.16188 | 18501 ft | 351 kts | 259° |
| 2026-02-19 12:49 | 41.02899 | 28.13022 | 19016 ft | 354 kts | 259° |
| 2026-02-19 12:49 | 41.02331 | 28.09841 | 19541 ft | 356 kts | 259° |
| 2026-02-19 12:49 | 41.01767 | 28.06675 | 20062 ft | 359 kts | 259° |
| 2026-02-19 12:50 | 41.01190 | 28.03442 | 20587 ft | 361 kts | 259° |
| 2026-02-19 12:50 | 41.00608 | 28.00187 | 21099 ft | 364 kts | 259° |
| 2026-02-19 12:50 | 41.00022 | 27.96913 | 21568 ft | 366 kts | 259° |
| 2026-02-19 12:50 | 40.99428 | 27.93605 | 22047 ft | 369 kts | 259° |
| 2026-02-19 12:51 | 40.98830 | 27.90295 | 22512 ft | 371 kts | 259° |
| 2026-02-19 12:51 | 40.98225 | 27.86956 | 22978 ft | 374 kts | 259° |
| 2026-02-19 12:51 | 40.97625 | 27.83633 | 23441 ft | 376 kts | 259° |
| 2026-02-19 12:51 | 40.97015 | 27.80242 | 23878 ft | 379 kts | 259° |
| 2026-02-19 12:52 | 40.96403 | 27.76847 | 24270 ft | 381 kts | 259° |
| 2026-02-19 12:52 | 40.95158 | 27.69989 | 25044 ft | 385 kts | 259° |
| 2026-02-19 12:52 | 40.94527 | 27.66530 | 25425 ft | 386 kts | 259° |
| 2026-02-19 12:53 | 40.93896 | 27.63066 | 25799 ft | 388 kts | 259° |
| 2026-02-19 12:53 | 40.93267 | 27.59632 | 26167 ft | 390 kts | 259° |
| 2026-02-19 12:53 | 40.92626 | 27.56139 | 26537 ft | 392 kts | 259° |
| 2026-02-19 12:53 | 40.91980 | 27.52628 | 26915 ft | 394 kts | 259° |
| 2026-02-19 12:54 | 40.91334 | 27.49106 | 27293 ft | 395 kts | 259° |
| 2026-02-19 12:54 | 40.90685 | 27.45561 | 27671 ft | 397 kts | 259° |
| 2026-02-19 12:54 | 40.90028 | 27.42001 | 28048 ft | 399 kts | 259° |
| 2026-02-19 12:54 | 40.89365 | 27.38421 | 28419 ft | 401 kts | 259° |
| 2026-02-19 12:55 | 40.88859 | 27.34804 | 28756 ft | 400 kts | 267° |
| 2026-02-19 12:55 | 40.88824 | 27.31126 | 29097 ft | 400 kts | 276° |
| 2026-02-19 12:55 | 40.89206 | 27.27483 | 29582 ft | 398 kts | 279° |
| 2026-02-19 12:55 | 40.89633 | 27.23866 | 30119 ft | 396 kts | 279° |
| 2026-02-19 12:56 | 40.90046 | 27.20314 | 30592 ft | 394 kts | 279° |
| 2026-02-19 12:56 | 40.90864 | 27.13182 | 31547 ft | 390 kts | 279° |
| 2026-02-19 12:56 | 40.91270 | 27.09635 | 32030 ft | 388 kts | 280° |
| 2026-02-19 12:57 | 40.91671 | 27.06114 | 32518 ft | 385 kts | 280° |
| 2026-02-19 12:57 | 40.92067 | 27.02617 | 33006 ft | 383 kts | 280° |
| 2026-02-19 12:57 | 40.92447 | 26.99135 | 33494 ft | 382 kts | 277° |
| 2026-02-19 12:57 | 40.92498 | 26.95665 | 33965 ft | 383 kts | 269° |
| 2026-02-19 12:58 | 40.92296 | 26.92150 | 34144 ft | 383 kts | 269° |
| 2026-02-19 12:58 | 40.91886 | 26.85049 | 34168 ft | 389 kts | 269° |
| 2026-02-19 12:59 | 40.91470 | 26.77896 | 34168 ft | 390 kts | 269° |
| 2026-02-19 12:59 | 40.91045 | 26.70783 | 34169 ft | 390 kts | 269° |
| 2026-02-19 13:00 | 40.90613 | 26.63634 | 34167 ft | 390 kts | 269° |
| 2026-02-19 13:00 | 40.89966 | 26.52898 | 34165 ft | 390 kts | 269° |
| 2026-02-19 13:01 | 40.89532 | 26.45785 | 34168 ft | 391 kts | 269° |
| 2026-02-19 13:01 | 40.89087 | 26.38627 | 34161 ft | 391 kts | 268° |
| 2026-02-19 13:02 | 40.88638 | 26.31450 | 34155 ft | 391 kts | 268° |
| 2026-02-19 13:02 | 40.88180 | 26.24284 | 34158 ft | 391 kts | 268° |
| 2026-02-19 13:03 | 40.87564 | 26.17175 | 34162 ft | 392 kts | 266° |
| 2026-02-19 13:03 | 40.86829 | 26.10018 | 34154 ft | 392 kts | 266° |
| 2026-02-19 13:04 | 40.85744 | 25.99310 | 34157 ft | 393 kts | 266° |
| 2026-02-19 13:05 | 40.85011 | 25.92133 | 34157 ft | 395 kts | 265° |
| 2026-02-19 13:05 | 40.84149 | 25.84961 | 34163 ft | 395 kts | 263° |
| 2026-02-19 13:06 | 40.82962 | 25.77834 | 34163 ft | 398 kts | 259° |
| 2026-02-19 13:06 | 40.81519 | 25.70818 | 34159 ft | 398 kts | 259° |
| 2026-02-19 13:07 | 40.80070 | 25.63733 | 34163 ft | 398 kts | 259° |
| 2026-02-19 13:07 | 40.78685 | 25.56651 | 34168 ft | 398 kts | 259° |
| 2026-02-19 13:08 | 40.77320 | 25.49597 | 34172 ft | 399 kts | 259° |
| 2026-02-19 13:08 | 40.75245 | 25.38954 | 34176 ft | 399 kts | 259° |
| 2026-02-19 13:09 | 40.73854 | 25.31896 | 34178 ft | 399 kts | 259° |
| 2026-02-19 13:09 | 40.72458 | 25.24815 | 34180 ft | 399 kts | 259° |
| 2026-02-19 13:10 | 40.71056 | 25.17727 | 34182 ft | 399 kts | 259° |
| 2026-02-19 13:10 | 40.69650 | 25.10654 | 34183 ft | 398 kts | 259° |
| 2026-02-19 13:11 | 40.68243 | 25.03585 | 34184 ft | 398 kts | 259° |
| 2026-02-19 13:11 | 40.66835 | 24.96565 | 34178 ft | 398 kts | 259° |
| 2026-02-19 13:12 | 40.64697 | 24.85972 | 34176 ft | 398 kts | 259° |
| 2026-02-19 13:13 | 40.63284 | 24.78966 | 34174 ft | 398 kts | 259° |
| 2026-02-19 13:13 | 40.61855 | 24.71910 | 34165 ft | 398 kts | 259° |
| 2026-02-19 13:14 | 40.60422 | 24.64847 | 34165 ft | 399 kts | 259° |
| 2026-02-19 13:14 | 40.58991 | 24.57850 | 34168 ft | 399 kts | 259° |
| 2026-02-19 13:15 | 40.57544 | 24.50799 | 34164 ft | 399 kts | 258° |
| 2026-02-19 13:15 | 40.56092 | 24.43737 | 34161 ft | 399 kts | 259° |
| 2026-02-19 13:16 | 40.54644 | 24.36698 | 34160 ft | 399 kts | 258° |
| 2026-02-19 13:16 | 40.52469 | 24.26169 | 34154 ft | 399 kts | 258° |
| 2026-02-19 13:17 | 40.51255 | 24.20307 | 34147 ft | 399 kts | 258° |
| 2026-02-19 13:17 | 40.49549 | 24.12106 | 34151 ft | 399 kts | 258° |
| 2026-02-19 13:18 | 40.48314 | 24.06247 | 34145 ft | 400 kts | 258° |
| 2026-02-19 13:18 | 40.46827 | 23.99182 | 34145 ft | 400 kts | 258° |
| 2026-02-19 13:19 | 40.45359 | 23.92169 | 34144 ft | 400 kts | 258° |
| 2026-02-19 13:19 | 40.43872 | 23.85105 | 34147 ft | 400 kts | 258° |
| 2026-02-19 13:20 | 40.41645 | 23.74570 | 34147 ft | 401 kts | 258° |
| 2026-02-19 13:21 | 40.40143 | 23.67526 | 34143 ft | 401 kts | 258° |
| 2026-02-19 13:21 | 40.38636 | 23.60480 | 34140 ft | 401 kts | 258° |
| 2026-02-19 13:22 | 40.37125 | 23.53430 | 34131 ft | 401 kts | 258° |
| 2026-02-19 13:22 | 40.35614 | 23.46425 | 34134 ft | 401 kts | 258° |
| 2026-02-19 13:23 | 40.34094 | 23.39376 | 34124 ft | 401 kts | 258° |
| 2026-02-19 13:23 | 40.32569 | 23.32329 | 34124 ft | 402 kts | 257° |
| 2026-02-19 13:24 | 40.31042 | 23.25313 | 34123 ft | 402 kts | 257° |
| 2026-02-19 13:25 | 40.27958 | 23.11212 | 34124 ft | 402 kts | 257° |
| 2026-02-19 13:25 | 40.26415 | 23.04174 | 34128 ft | 402 kts | 257° |
| 2026-02-19 13:26 | 40.24873 | 22.97133 | 34136 ft | 402 kts | 257° |
| 2026-02-19 13:26 | 40.23330 | 22.90135 | 34131 ft | 402 kts | 257° |
| 2026-02-19 13:27 | 40.21766 | 22.83076 | 34132 ft | 402 kts | 257° |
| 2026-02-19 13:27 | 40.20209 | 22.76087 | 34130 ft | 402 kts | 257° |
| 2026-02-19 13:28 | 40.18639 | 22.69058 | 34128 ft | 402 kts | 257° |
| 2026-02-19 13:28 | 40.16288 | 22.58527 | 34125 ft | 402 kts | 257° |
| 2026-02-19 13:29 | 40.14714 | 22.51498 | 34122 ft | 402 kts | 257° |
| 2026-02-19 13:29 | 40.13142 | 22.44527 | 34124 ft | 402 kts | 257° |
| 2026-02-19 13:30 | 40.11557 | 22.37494 | 34123 ft | 403 kts | 257° |
| 2026-02-19 13:30 | 40.09967 | 22.30476 | 34121 ft | 403 kts | 257° |
| 2026-02-19 13:31 | 40.08374 | 22.23485 | 34119 ft | 403 kts | 256° |
| 2026-02-19 13:31 | 40.06768 | 22.16474 | 34113 ft | 402 kts | 256° |
| 2026-02-19 13:32 | 40.04377 | 22.06002 | 34110 ft | 402 kts | 256° |
| 2026-02-19 13:33 | 40.02775 | 21.99017 | 34109 ft | 401 kts | 256° |
| 2026-02-19 13:33 | 40.01167 | 21.92045 | 34106 ft | 401 kts | 256° |
| 2026-02-19 13:34 | 39.99559 | 21.85116 | 34105 ft | 401 kts | 256° |
| 2026-02-19 13:34 | 39.97940 | 21.78149 | 34109 ft | 400 kts | 256° |
| 2026-02-19 13:35 | 39.96321 | 21.71192 | 34108 ft | 400 kts | 256° |
| 2026-02-19 13:35 | 39.94704 | 21.64243 | 34100 ft | 400 kts | 256° |
| 2026-02-19 13:36 | 39.93084 | 21.57311 | 34101 ft | 400 kts | 256° |
| 2026-02-19 13:36 | 39.90644 | 21.46944 | 34106 ft | 400 kts | 256° |
| 2026-02-19 13:37 | 39.89005 | 21.40015 | 34108 ft | 400 kts | 256° |
| 2026-02-19 13:37 | 39.87364 | 21.33079 | 34111 ft | 400 kts | 256° |
| 2026-02-19 13:38 | 39.85731 | 21.26209 | 34118 ft | 400 kts | 256° |
| 2026-02-19 13:38 | 39.84085 | 21.19293 | 34122 ft | 399 kts | 256° |
| 2026-02-19 13:39 | 39.82439 | 21.12366 | 34125 ft | 400 kts | 256° |
| 2026-02-19 13:39 | 39.80787 | 21.05454 | 34136 ft | 400 kts | 255° |
| 2026-02-19 13:40 | 39.78298 | 20.95129 | 34141 ft | 400 kts | 255° |
| 2026-02-19 13:41 | 39.76639 | 20.88230 | 34141 ft | 400 kts | 255° |
| 2026-02-19 13:41 | 39.74970 | 20.81320 | 34147 ft | 400 kts | 255° |
| 2026-02-19 13:42 | 39.73302 | 20.74468 | 34149 ft | 400 kts | 255° |
| 2026-02-19 13:42 | 39.71624 | 20.67585 | 34156 ft | 399 kts | 255° |
| 2026-02-19 13:43 | 39.69947 | 20.60698 | 34154 ft | 398 kts | 255° |
| 2026-02-19 13:43 | 39.68270 | 20.53837 | 34146 ft | 398 kts | 255° |
| 2026-02-19 13:44 | 39.66599 | 20.47029 | 34147 ft | 398 kts | 255° |
| 2026-02-19 13:44 | 39.64070 | 20.36757 | 34135 ft | 398 kts | 254° |
| 2026-02-19 13:45 | 39.62394 | 20.29963 | 34130 ft | 397 kts | 254° |
| 2026-02-19 13:45 | 39.60696 | 20.23124 | 34122 ft | 397 kts | 254° |
| 2026-02-19 13:46 | 39.58993 | 20.16301 | 34117 ft | 397 kts | 254° |
| 2026-02-19 13:46 | 39.57306 | 20.09533 | 34117 ft | 396 kts | 254° |
| 2026-02-19 13:47 | 39.55609 | 20.02730 | 34116 ft | 396 kts | 254° |
| 2026-02-19 13:47 | 39.53907 | 19.95934 | 34115 ft | 396 kts | 254° |
| 2026-02-19 13:48 | 39.51348 | 19.85783 | 34113 ft | 396 kts | 254° |
| 2026-02-19 13:49 | 39.49637 | 19.78993 | 34110 ft | 396 kts | 254° |
| 2026-02-19 13:49 | 39.47926 | 19.72222 | 34109 ft | 396 kts | 254° |
| 2026-02-19 13:50 | 39.46205 | 19.65454 | 34102 ft | 396 kts | 253° |
| 2026-02-19 13:50 | 39.44479 | 19.58679 | 34096 ft | 396 kts | 253° |
| 2026-02-19 13:51 | 39.42758 | 19.51931 | 34086 ft | 396 kts | 253° |
| 2026-02-19 13:51 | 39.41032 | 19.45171 | 34077 ft | 396 kts | 253° |
| 2026-02-19 13:52 | 39.39295 | 19.38407 | 34073 ft | 396 kts | 253° |
| 2026-02-19 13:52 | 39.36687 | 19.28307 | 34074 ft | 396 kts | 253° |
| 2026-02-19 13:53 | 39.34938 | 19.21542 | 34069 ft | 396 kts | 253° |
| 2026-02-19 13:53 | 39.33186 | 19.14790 | 34069 ft | 396 kts | 253° |
| 2026-02-19 13:54 | 39.31430 | 19.08054 | 34072 ft | 396 kts | 253° |
| 2026-02-19 13:54 | 39.29691 | 19.01311 | 34070 ft | 395 kts | 256° |
| 2026-02-19 13:55 | 39.28922 | 18.94326 | 34064 ft | 393 kts | 265° |
| 2026-02-19 13:55 | 39.28406 | 18.87324 | 34050 ft | 393 kts | 265° |
| 2026-02-19 13:56 | 39.27612 | 18.76808 | 34046 ft | 393 kts | 264° |
| 2026-02-19 13:57 | 39.27081 | 18.69783 | 34044 ft | 393 kts | 264° |
| 2026-02-19 13:57 | 39.26551 | 18.62750 | 34045 ft | 393 kts | 264° |
| 2026-02-19 13:58 | 39.26016 | 18.55720 | 34044 ft | 393 kts | 264° |
| 2026-02-19 13:58 | 39.25478 | 18.48744 | 34045 ft | 392 kts | 264° |
| 2026-02-19 13:59 | 39.24926 | 18.41716 | 34039 ft | 392 kts | 264° |
| 2026-02-19 13:59 | 39.24385 | 18.34761 | 34036 ft | 392 kts | 264° |
| 2026-02-19 14:00 | 39.23832 | 18.27771 | 34038 ft | 391 kts | 264° |
| 2026-02-19 14:00 | 39.23093 | 18.18485 | 34025 ft | 390 kts | 264° |
| 2026-02-19 14:01 | 39.22532 | 18.11523 | 34031 ft | 389 kts | 264° |
| 2026-02-19 14:01 | 39.21963 | 18.04578 | 34032 ft | 389 kts | 264° |
| 2026-02-19 14:02 | 39.21399 | 17.97634 | 34026 ft | 389 kts | 264° |
| 2026-02-19 14:02 | 39.20834 | 17.90733 | 34024 ft | 388 kts | 264° |
| 2026-02-19 14:03 | 39.20259 | 17.83818 | 34031 ft | 387 kts | 264° |
| 2026-02-19 14:03 | 39.19684 | 17.76911 | 34020 ft | 387 kts | 264° |
| 2026-02-19 14:04 | 39.18519 | 17.63150 | 34011 ft | 386 kts | 263° |
| 2026-02-19 14:05 | 39.17928 | 17.56273 | 34004 ft | 385 kts | 263° |
| 2026-02-19 14:05 | 39.17336 | 17.49400 | 33996 ft | 385 kts | 263° |
| 2026-02-19 14:06 | 39.16748 | 17.42588 | 34000 ft | 384 kts | 263° |
| 2026-02-19 14:06 | 39.16152 | 17.35746 | 34001 ft | 384 kts | 263° |
| 2026-02-19 14:07 | 39.15551 | 17.28904 | 34000 ft | 383 kts | 263° |
| 2026-02-19 14:07 | 39.14950 | 17.22075 | 34005 ft | 383 kts | 263° |
| 2026-02-19 14:08 | 39.14045 | 17.11887 | 34007 ft | 383 kts | 263° |
| 2026-02-19 14:09 | 39.13430 | 17.05062 | 34003 ft | 383 kts | 263° |
| 2026-02-19 14:09 | 39.12815 | 16.98286 | 34004 ft | 382 kts | 263° |
| 2026-02-19 14:10 | 39.12194 | 16.91469 | 33993 ft | 383 kts | 263° |
| 2026-02-19 14:10 | 39.11571 | 16.84661 | 33987 ft | 383 kts | 263° |
| 2026-02-19 14:11 | 39.10941 | 16.77856 | 33967 ft | 382 kts | 263° |
| 2026-02-19 14:11 | 39.10320 | 16.71110 | 33963 ft | 381 kts | 263° |
| 2026-02-19 14:12 | 39.09690 | 16.64318 | 33968 ft | 382 kts | 262° |
| 2026-02-19 14:12 | 39.08731 | 16.54143 | 33961 ft | 381 kts | 262° |
| 2026-02-19 14:13 | 39.08084 | 16.47364 | 33959 ft | 381 kts | 262° |
| 2026-02-19 14:13 | 39.07438 | 16.40622 | 33955 ft | 380 kts | 262° |
| 2026-02-19 14:14 | 39.06790 | 16.33856 | 33947 ft | 380 kts | 262° |
| 2026-02-19 14:14 | 39.06142 | 16.27144 | 33951 ft | 379 kts | 262° |
| 2026-02-19 14:15 | 39.05485 | 16.20405 | 33950 ft | 378 kts | 262° |
| 2026-02-19 14:15 | 39.04821 | 16.13683 | 33948 ft | 378 kts | 262° |
| 2026-02-19 14:16 | 39.03836 | 16.03661 | 33956 ft | 377 kts | 262° |
| 2026-02-19 14:17 | 39.03178 | 15.96967 | 33963 ft | 376 kts | 261° |
| 2026-02-19 14:17 | 39.02506 | 15.90289 | 33968 ft | 375 kts | 261° |
| 2026-02-19 14:18 | 39.01836 | 15.83677 | 33974 ft | 375 kts | 261° |
| 2026-02-19 14:18 | 39.01162 | 15.77025 | 33969 ft | 374 kts | 261° |
| 2026-02-19 14:19 | 39.00487 | 15.70370 | 33966 ft | 374 kts | 261° |
| 2026-02-19 14:19 | 38.99815 | 15.63790 | 33961 ft | 373 kts | 261° |
| 2026-02-19 14:20 | 38.98450 | 15.50585 | 33948 ft | 371 kts | 261° |
| 2026-02-19 14:21 | 38.97766 | 15.43996 | 33941 ft | 371 kts | 261° |
| 2026-02-19 14:21 | 38.97080 | 15.37416 | 33936 ft | 371 kts | 261° |
| 2026-02-19 14:22 | 38.96391 | 15.30881 | 33932 ft | 371 kts | 260° |
| 2026-02-19 14:22 | 38.95693 | 15.24310 | 33935 ft | 371 kts | 260° |
| 2026-02-19 14:23 | 38.94993 | 15.17744 | 33933 ft | 370 kts | 260° |
| 2026-02-19 14:23 | 38.94295 | 15.11192 | 33920 ft | 370 kts | 260° |
| 2026-02-19 14:24 | 38.93591 | 15.04649 | 33937 ft | 370 kts | 260° |
| 2026-02-19 14:24 | 38.92537 | 14.94877 | 33931 ft | 369 kts | 260° |
| 2026-02-19 14:25 | 38.91824 | 14.88345 | 33934 ft | 368 kts | 260° |
| 2026-02-19 14:25 | 38.91112 | 14.81874 | 33928 ft | 367 kts | 259° |
| 2026-02-19 14:26 | 38.90753 | 14.78618 | 33797 ft | 368 kts | 259° |
| 2026-02-19 14:26 | 38.90396 | 14.75365 | 33517 ft | 367 kts | 259° |
| 2026-02-19 14:26 | 38.90039 | 14.72112 | 33243 ft | 368 kts | 259° |
| 2026-02-19 14:26 | 38.89679 | 14.68853 | 32974 ft | 368 kts | 259° |
| 2026-02-19 14:27 | 38.89321 | 14.65634 | 32522 ft | 369 kts | 259° |
| 2026-02-19 14:27 | 38.88956 | 14.62363 | 31716 ft | 371 kts | 259° |
| 2026-02-19 14:27 | 38.88591 | 14.59076 | 30971 ft | 372 kts | 259° |
| 2026-02-19 14:27 | 38.88222 | 14.55783 | 30303 ft | 371 kts | 259° |
| 2026-02-19 14:28 | 38.87856 | 14.52527 | 29833 ft | 365 kts | 259° |
| 2026-02-19 14:28 | 38.87140 | 14.46161 | 28829 ft | 353 kts | 259° |
| 2026-02-19 14:28 | 38.86792 | 14.43063 | 28345 ft | 348 kts | 258° |
| 2026-02-19 14:29 | 38.86447 | 14.40015 | 27870 ft | 343 kts | 258° |
| 2026-02-19 14:29 | 38.86102 | 14.37009 | 27412 ft | 338 kts | 258° |
| 2026-02-19 14:29 | 38.85764 | 14.34083 | 26947 ft | 334 kts | 258° |
| 2026-02-19 14:29 | 38.85428 | 14.31151 | 26492 ft | 331 kts | 258° |
| 2026-02-19 14:30 | 38.85096 | 14.28234 | 26032 ft | 329 kts | 258° |
| 2026-02-19 14:30 | 38.84767 | 14.25341 | 25589 ft | 327 kts | 258° |
| 2026-02-19 14:30 | 38.84435 | 14.22445 | 25140 ft | 326 kts | 258° |
| 2026-02-19 14:30 | 38.84103 | 14.19576 | 24696 ft | 324 kts | 258° |
| 2026-02-19 14:31 | 38.83770 | 14.16710 | 24207 ft | 324 kts | 259° |
| 2026-02-19 14:31 | 38.83646 | 14.13851 | 23690 ft | 328 kts | 267° |
| 2026-02-19 14:31 | 38.83728 | 14.10915 | 23113 ft | 329 kts | 268° |
| 2026-02-19 14:31 | 38.83807 | 14.07995 | 22598 ft | 326 kts | 267° |
| 2026-02-19 14:32 | 38.83884 | 14.05096 | 22106 ft | 324 kts | 267° |
| 2026-02-19 14:32 | 38.84030 | 13.99365 | 21157 ft | 318 kts | 267° |
| 2026-02-19 14:32 | 38.84099 | 13.96570 | 20744 ft | 313 kts | 267° |
| 2026-02-19 14:33 | 38.84166 | 13.93801 | 20673 ft | 310 kts | 267° |
| 2026-02-19 14:33 | 38.84230 | 13.91033 | 20605 ft | 311 kts | 267° |
| 2026-02-19 14:33 | 38.84294 | 13.88255 | 20349 ft | 311 kts | 267° |
| 2026-02-19 14:33 | 38.84359 | 13.85499 | 19962 ft | 308 kts | 267° |
| 2026-02-19 14:34 | 38.84421 | 13.82753 | 19571 ft | 306 kts | 267° |
| 2026-02-19 14:34 | 38.84481 | 13.80037 | 19162 ft | 304 kts | 267° |
| 2026-02-19 14:34 | 38.84541 | 13.77329 | 18756 ft | 302 kts | 267° |
| 2026-02-19 14:34 | 38.84603 | 13.74639 | 18346 ft | 300 kts | 267° |
| 2026-02-19 14:35 | 38.84666 | 13.71998 | 17893 ft | 299 kts | 267° |
| 2026-02-19 14:35 | 38.84728 | 13.69347 | 17466 ft | 297 kts | 267° |
| 2026-02-19 14:35 | 38.84784 | 13.66705 | 17040 ft | 295 kts | 267° |
| 2026-02-19 14:35 | 38.84841 | 13.64077 | 16613 ft | 293 kts | 267° |
| 2026-02-19 14:36 | 38.84897 | 13.61471 | 16189 ft | 291 kts | 267° |
| 2026-02-19 14:36 | 38.84668 | 13.56355 | 15314 ft | 283 kts | 252° |
| 2026-02-19 14:36 | 38.83886 | 13.54048 | 14823 ft | 283 kts | 239° |
| 2026-02-19 14:37 | 38.82655 | 13.52081 | 14335 ft | 285 kts | 226° |
| 2026-02-19 14:37 | 38.81082 | 13.50566 | 13849 ft | 289 kts | 217° |
| 2026-02-19 14:37 | 38.79398 | 13.49150 | 13304 ft | 289 kts | 217° |
| 2026-02-19 14:37 | 38.77721 | 13.47731 | 12793 ft | 288 kts | 218° |
| 2026-02-19 14:38 | 38.76047 | 13.46317 | 12303 ft | 287 kts | 217° |
| 2026-02-19 14:38 | 38.74380 | 13.44911 | 11794 ft | 286 kts | 217° |
| 2026-02-19 14:38 | 38.72719 | 13.43508 | 11299 ft | 286 kts | 217° |
| 2026-02-19 14:38 | 38.71054 | 13.42100 | 10790 ft | 286 kts | 217° |
| 2026-02-19 14:39 | 38.69397 | 13.40699 | 10406 ft | 283 kts | 217° |
| 2026-02-19 14:39 | 38.67783 | 13.39342 | 10281 ft | 271 kts | 217° |
| 2026-02-19 14:39 | 38.66241 | 13.38048 | 10225 ft | 258 kts | 217° |
| 2026-02-19 14:39 | 38.64775 | 13.36824 | 10150 ft | 243 kts | 218° |
| 2026-02-19 14:40 | 38.63414 | 13.35690 | 10053 ft | 223 kts | 218° |
| 2026-02-19 14:40 | 38.60998 | 13.33694 | 9834 ft | 201 kts | 214° |
| 2026-02-19 14:40 | 38.59709 | 13.32926 | 9451 ft | 206 kts | 211° |
| 2026-02-19 14:41 | 38.58389 | 13.32166 | 9097 ft | 209 kts | 211° |
| 2026-02-19 14:41 | 38.57055 | 13.31402 | 8745 ft | 211 kts | 211° |
| 2026-02-19 14:41 | 38.55715 | 13.30634 | 8398 ft | 212 kts | 211° |
| 2026-02-19 14:41 | 38.54359 | 13.29861 | 8052 ft | 214 kts | 210° |
| 2026-02-19 14:42 | 38.52990 | 13.29083 | 7704 ft | 216 kts | 210° |
| 2026-02-19 14:42 | 38.51609 | 13.28306 | 7360 ft | 218 kts | 210° |
| 2026-02-19 14:42 | 38.50216 | 13.27520 | 7006 ft | 219 kts | 210° |
| 2026-02-19 14:42 | 38.48815 | 13.26726 | 6634 ft | 222 kts | 210° |
| 2026-02-19 14:43 | 38.47422 | 13.25938 | 6278 ft | 218 kts | 210° |
| 2026-02-19 14:43 | 38.46064 | 13.25171 | 5970 ft | 208 kts | 210° |
| 2026-02-19 14:43 | 38.44765 | 13.24436 | 5695 ft | 202 kts | 211° |
| 2026-02-19 14:43 | 38.43485 | 13.23710 | 5418 ft | 201 kts | 211° |
| 2026-02-19 14:44 | 38.42211 | 13.22988 | 5149 ft | 200 kts | 211° |
| 2026-02-19 14:44 | 38.39690 | 13.21562 | 4620 ft | 198 kts | 211° |
| 2026-02-19 14:44 | 38.38842 | 13.21083 | 4430 ft | 197 kts | 211° |
| 2026-02-19 14:45 | 38.37607 | 13.20385 | 4165 ft | 195 kts | 211° |
| 2026-02-19 14:45 | 38.36367 | 13.19685 | 3899 ft | 194 kts | 211° |
| 2026-02-19 14:45 | 38.35142 | 13.18994 | 3645 ft | 191 kts | 211° |
| 2026-02-19 14:45 | 38.33935 | 13.18313 | 3394 ft | 187 kts | 211° |
| 2026-02-19 14:46 | 38.32791 | 13.17671 | 3163 ft | 170 kts | 211° |
| 2026-02-19 14:46 | 38.31755 | 13.17088 | 2941 ft | 154 kts | 211° |
| 2026-02-19 14:46 | 38.30829 | 13.16568 | 2756 ft | 137 kts | 212° |
| 2026-02-19 14:46 | 38.29989 | 13.16093 | 2548 ft | 128 kts | 212° |
| 2026-02-19 14:47 | 38.29201 | 13.15647 | 2390 ft | 124 kts | 211° |
| 2026-02-19 14:47 | 38.28414 | 13.15201 | 2222 ft | 124 kts | 210° |
| 2026-02-19 14:47 | 38.27624 | 13.14755 | 2052 ft | 125 kts | 210° |
| 2026-02-19 14:47 | 38.26829 | 13.14307 | 1882 ft | 124 kts | 210° |
| 2026-02-19 14:48 | 38.26038 | 13.13861 | 1715 ft | 124 kts | 209° |
| 2026-02-19 14:48 | 38.24460 | 13.12975 | 1417 ft | 124 kts | 210° |
| 2026-02-19 14:48 | 38.23658 | 13.12525 | 1276 ft | 128 kts | 208° |
| 2026-02-19 14:49 | 38.22847 | 13.12044 | 1116 ft | 128 kts | 208° |
| 2026-02-19 14:49 | 38.22049 | 13.11602 | 988 ft | 126 kts | 207° |
| 2026-02-19 14:49 | 38.21242 | 13.11214 | 820 ft | 122 kts | 205° |
| 2026-02-19 14:49 | 38.20486 | 13.10758 | 641 ft | 120 kts | 207° |
| 2026-02-19 14:50 | 38.19732 | 13.10290 | 448 ft | 120 kts | 204° |
| 2026-02-19 14:50 | 38.18966 | 13.09874 | 257 ft | 118 kts | 202° |
| 2026-02-19 14:50 | 38.18212 | 13.09461 | 70 ft | 117 kts | 205° |
| 2026-02-19 14:50 | 38.17571 | 13.09095 | 53 ft | 71 kts | 203° |
| 2026-02-19 14:51 | 38.17341 | 13.08966 | 53 ft | 23 kts | 204° |
| 2026-02-19 14:51 | 38.17194 | 13.08884 | 53 ft | 24 kts | 204° |
| 2026-02-19 14:51 | 38.17054 | 13.08801 | 53 ft | 14 kts | 213° |
| 2026-02-19 14:51 | 38.17077 | 13.08700 | 53 ft | 15 kts | 323° |
| 2026-02-19 14:52 | 38.17170 | 13.08617 | 53 ft | 17 kts | 334° |
| 2026-02-19 14:52 | 38.17427 | 13.08700 | 53 ft | 21 kts | 19° |
| 2026-02-19 14:52 | 38.17566 | 13.08786 | 53 ft | 23 kts | 36° |
| 2026-02-19 14:53 | 38.17681 | 13.08895 | 53 ft | 21 kts | 37° |
| 2026-02-19 14:53 | 38.17771 | 13.09046 | 53 ft | 23 kts | 66° |
| 2026-02-19 14:53 | 38.17835 | 13.09241 | 51 ft | 25 kts | 67° |
| 2026-02-19 14:53 | 38.17907 | 13.09453 | 51 ft | 27 kts | 67° |
| 2026-02-19 14:54 | 38.17978 | 13.09664 | 53 ft | 27 kts | 67° |
| 2026-02-19 14:54 | 38.18035 | 13.09832 | 53 ft | 8 kts | 67° |
| 2026-02-19 14:54 | 38.18085 | 13.09863 | 53 ft | 10 kts | 341° |
| 2026-02-19 14:54 | 38.18159 | 13.09823 | 52 ft | 13 kts | 337° |
| 2026-02-19 14:55 | 38.18243 | 13.09831 | 52 ft | 14 kts | 53° |
| 2026-02-19 14:55 | 38.18289 | 13.09957 | 53 ft | 17 kts | 67° |
| 2026-02-19 14:55 | 38.18337 | 13.10102 | 51 ft | 19 kts | 66° |
| 2026-02-19 14:55 | 38.18385 | 13.10256 | 53 ft | 15 kts | 90° |
| 2026-02-19 14:56 | 38.18304 | 13.10345 | 53 ft | 17 kts | 120° |
| 2026-02-19 14:56 | 38.18447 | 13.10546 | 52 ft | 16 kts | 55° |
| 2026-02-19 14:56 | 38.18495 | 13.10579 | 53 ft | 9 kts | 338° |
| 2026-02-19 14:57 | 38.18528 | 13.10562 | 53 ft | 2 kts | 337° |
| 2026-02-19 14:57 | 38.18534 | 13.10558 | 53 ft | 0 kts | 337° |